Norton, KS

11:59 AM CST on February 23, 2017 (GMT -0600)
by sebelius lake | | Change Station

Elev 2418 ft 39.83 °N, 99.97 °W | Updated 6 minutes ago

Overcast
Overcast
35.3 °F
Feels Like 27 °F
N
12.0
Wind Variable Wind from NE
Gusts 25.0 mph

Today
High -- | Low -- °F
--% Chance of Precip.
Yesterday
High -- | Low -- °F
Precip. -- in
Pressure 29.56 in
Visibility 10.0 miles
Clouds Overcast 1700 ft
Windchill 27 °F
Dew Point 32 °F
Humidity 88%
Rainfall 0.00 in
Snow Depth Not available.
7:20 AM 6:25 PM
Waning Crescent, 9% visible
METAR KHLC 231753Z AUTO 07015G23KT 10SM OVC017 06/02 A2956 RMK AO2 SLP010 T00610017 10061 20039 57025 TSNO
Pressure 29.56 in
Visibility 10.0 miles
Clouds Overcast 1700 ft
Windchill 27 °F
Dew Point 32 °F
Humidity 88%
Rainfall 0.00 in
Snow Depth Not available.
7:20 AM 6:25 PM
Waning Crescent, 9% visible
METAR KHLC 231753Z AUTO 07015G23KT 10SM OVC017 06/02 A2956 RMK AO2 SLP010 T00610017 10061 20039 57025 TSNO

Get Your Daily Forecast Email!

Thanks for signing up!

Be on the lookout for a verification email in your inbox.

You'll start receiving the daily forecast at 8 AM.

×

10-Day Weather Forecast

Almanac

Astronomy

Feb. 23, 2017 Rise Set
Actual Time
Civil Twilight
Nautical Twilight
Astronomical Twilight
Moon
Length of Visible Light
Length of Day
Tomorrow will be .
, % of the Moon is Illuminated

Today's Extremes

State Highs State Lows

Community

WunderPhotos

Upload Photos

1,962,540 photos uploaded!

WunderBlog® & News

Nearby

Air Quality

  Air Quality AQ Index Pollutant
Not available.

Snow Depth

Station Depth Elevation

Earthquake Activity

City Distance Mag. Time & Date
Minimum magnitude displayed is 2.5.

Coastal Water Temperatures

Place Temperature

Stations

Nearby Weather Stations

Station Location Temp. Windchill Dew Point Humidity Wind Precip. Elev Updated Type
                   

Watches & Warnings

There are currently no watches in effect.